sensor_id;sensor_type;location;lat;lon;timestamp;pressure;altitude;pressure_sealevel;temperature;humidity
65280;BME280;51878;55.748;48.742;2023-03-22T00:00:13;98338.13;;;0.82;100.00
65280;BME280;51878;55.748;48.742;2023-03-22T00:05:19;98324.00;;;0.72;100.00
65280;BME280;51878;55.748;48.742;2023-03-22T00:10:21;98302.81;;;0.53;100.00
65280;BME280;51878;55.748;48.742;2023-03-22T00:15:24;98366.69;;;0.90;100.00
65280;BME280;51878;55.748;48.742;2023-03-22T00:20:26;98358.09;;;0.78;100.00
65280;BME280;51878;55.748;48.742;2023-03-22T00:25:31;98306.47;;;0.52;100.00
65280;BME280;51878;55.748;48.742;2023-03-22T00:30:33;98331.94;;;0.64;100.00
65280;BME280;51878;55.748;48.742;2023-03-22T00:35:35;98346.03;;;0.74;100.00
65280;BME280;51878;55.748;48.742;2023-03-22T00:40:37;98143.91;;;-0.48;100.00
65280;BME280;51878;55.748;48.742;2023-03-22T00:45:40;98291.53;;;0.41;100.00
65280;BME280;51878;55.748;48.742;2023-03-22T00:50:42;98356.78;;;0.82;100.00
65280;BME280;51878;55.748;48.742;2023-03-22T00:55:44;98249.84;;;0.22;100.00
65280;BME280;51878;55.748;48.742;2023-03-22T01:00:47;98279.34;;;0.38;100.00
65280;BME280;51878;55.748;48.742;2023-03-22T01:05:51;98334.63;;;0.64;100.00
65280;BME280;51878;55.748;48.742;2023-03-22T01:10:56;98332.31;;;0.51;100.00
65280;BME280;51878;55.748;48.742;2023-03-22T01:15:58;98309.28;;;0.50;100.00
65280;BME280;51878;55.748;48.742;2023-03-22T01:21:00;98335.59;;;0.63;100.00
65280;BME280;51878;55.748;48.742;2023-03-22T01:26:03;98226.31;;;-0.01;100.00
65280;BME280;51878;55.748;48.742;2023-03-22T01:31:06;98343.69;;;0.71;100.00
65280;BME280;51878;55.748;48.742;2023-03-22T01:36:08;98315.72;;;0.57;100.00
65280;BME280;51878;55.748;48.742;2023-03-22T01:41:11;98330.13;;;0.65;100.00
65280;BME280;51878;55.748;48.742;2023-03-22T01:46:13;98310.44;;;0.48;100.00
65280;BME280;51878;55.748;48.742;2023-03-22T01:51:18;98242.31;;;0.17;100.00
65280;BME280;51878;55.748;48.742;2023-03-22T01:56:23;98276.47;;;0.50;100.00
65280;BME280;51878;55.748;48.742;2023-03-22T02:01:26;98286.22;;;0.41;100.00
65280;BME280;51878;55.748;48.742;2023-03-22T02:06:29;98325.25;;;0.60;100.00
65280;BME280;51878;55.748;48.742;2023-03-22T02:11:35;98328.41;;;0.64;100.00
65280;BME280;51878;55.748;48.742;2023-03-22T02:44:03;98317.75;;;0.00;100.00
65280;BME280;51878;55.748;48.742;2023-03-22T02:49:13;98356.03;;;0.27;100.00
65280;BME280;51878;55.748;48.742;2023-03-22T02:54:21;98340.66;;;0.11;100.00
65280;BME280;51878;55.748;48.742;2023-03-22T02:59:30;98317.53;;;0.11;100.00
65280;BME280;51878;55.748;48.742;2023-03-22T03:04:38;98298.66;;;0.05;100.00
65280;BME280;51878;55.748;48.742;2023-03-22T03:09:43;98252.69;;;-0.07;100.00
65280;BME280;51878;55.748;48.742;2023-03-22T03:14:45;98313.47;;;0.35;100.00
65280;BME280;51878;55.748;48.742;2023-03-22T03:25:21;98288.94;;;0.31;100.00
65280;BME280;51878;55.748;48.742;2023-03-22T03:30:38;98324.00;;;0.54;100.00
65280;BME280;51878;55.748;48.742;2023-03-22T03:35:48;98244.50;;;0.04;100.00
65280;BME280;51878;55.748;48.742;2023-03-22T03:40:56;98144.25;;;-0.60;100.00
65280;BME280;51878;55.748;48.742;2023-03-22T03:46:03;98312.59;;;0.62;100.00
65280;BME280;51878;55.748;48.742;2023-03-22T03:51:06;98286.16;;;0.51;100.00
65280;BME280;51878;55.748;48.742;2023-03-22T03:56:08;98295.13;;;0.68;100.00
65280;BME280;51878;55.748;48.742;2023-03-22T04:01:11;98142.66;;;-0.08;100.00
65280;BME280;51878;55.748;48.742;2023-03-22T04:06:13;98227.72;;;0.57;100.00
65280;BME280;51878;55.748;48.742;2023-03-22T04:11:15;98328.09;;;1.20;100.00
65280;BME280;51878;55.748;48.742;2023-03-22T04:16:17;98253.13;;;0.70;100.00
65280;BME280;51878;55.748;48.742;2023-03-22T04:21:23;98265.91;;;1.02;100.00
65280;BME280;51878;55.748;48.742;2023-03-22T04:26:26;98268.25;;;1.05;100.00
65280;BME280;51878;55.748;48.742;2023-03-22T04:31:29;98328.19;;;1.55;100.00
65280;BME280;51878;55.748;48.742;2023-03-22T04:36:33;98289.41;;;1.24;100.00
65280;BME280;51878;55.748;48.742;2023-03-22T04:41:42;98305.09;;;1.46;100.00
65280;BME280;51878;55.748;48.742;2023-03-22T04:46:44;98339.28;;;1.68;100.00
65280;BME280;51878;55.748;48.742;2023-03-22T04:51:51;98336.56;;;1.60;100.00
65280;BME280;51878;55.748;48.742;2023-03-22T04:56:54;98367.88;;;1.76;100.00
65280;BME280;51878;55.748;48.742;2023-03-22T05:01:56;98303.19;;;1.38;100.00
65280;BME280;51878;55.748;48.742;2023-03-22T05:06:58;98317.09;;;1.76;100.00
65280;BME280;51878;55.748;48.742;2023-03-22T05:12:00;98296.88;;;1.73;100.00
65280;BME280;51878;55.748;48.742;2023-03-22T05:17:02;98351.09;;;2.26;100.00
65280;BME280;51878;55.748;48.742;2023-03-22T05:22:05;98388.38;;;2.78;100.00
65280;BME280;51878;55.748;48.742;2023-03-22T05:27:07;98384.06;;;2.94;100.00
65280;BME280;51878;55.748;48.742;2023-03-22T05:32:10;98363.00;;;3.23;100.00
65280;BME280;51878;55.748;48.742;2023-03-22T05:37:13;98296.53;;;2.69;100.00
65280;BME280;51878;55.748;48.742;2023-03-22T05:42:15;98365.03;;;3.13;100.00
65280;BME280;51878;55.748;48.742;2023-03-22T05:47:20;98403.84;;;3.25;100.00
65280;BME280;51878;55.748;48.742;2023-03-22T05:52:22;98424.13;;;3.36;100.00
65280;BME280;51878;55.748;48.742;2023-03-22T05:57:25;98363.00;;;3.15;100.00
65280;BME280;51878;55.748;48.742;2023-03-22T06:02:27;98402.84;;;3.35;100.00
65280;BME280;51878;55.748;48.742;2023-03-22T06:07:30;98320.63;;;2.86;100.00
65280;BME280;51878;55.748;48.742;2023-03-22T06:12:32;98308.78;;;2.80;100.00
65280;BME280;51878;55.748;48.742;2023-03-22T06:17:35;98429.81;;;3.33;100.00
65280;BME280;51878;55.748;48.742;2023-03-22T06:22:39;98403.16;;;2.99;100.00
65280;BME280;51878;55.748;48.742;2023-03-22T06:27:41;98427.91;;;3.01;100.00
65280;BME280;51878;55.748;48.742;2023-03-22T06:32:44;98181.00;;;1.32;100.00
65280;BME280;51878;55.748;48.742;2023-03-22T06:37:47;98411.44;;;2.71;100.00
65280;BME280;51878;55.748;48.742;2023-03-22T06:42:49;98426.34;;;2.74;100.00
65280;BME280;51878;55.748;48.742;2023-03-22T06:47:55;98406.91;;;2.63;100.00
65280;BME280;51878;55.748;48.742;2023-03-22T06:52:57;98404.72;;;2.59;100.00
65280;BME280;51878;55.748;48.742;2023-03-22T06:58:00;98358.91;;;2.19;100.00
65280;BME280;51878;55.748;48.742;2023-03-22T07:03:05;98352.69;;;2.11;100.00
65280;BME280;51878;55.748;48.742;2023-03-22T07:08:07;98378.78;;;2.17;100.00
65280;BME280;51878;55.748;48.742;2023-03-22T07:13:13;98363.34;;;2.02;100.00
65280;BME280;51878;55.748;48.742;2023-03-22T07:18:15;98412.25;;;2.29;100.00
65280;BME280;51878;55.748;48.742;2023-03-22T07:23:17;98315.38;;;1.67;100.00
65280;BME280;51878;55.748;48.742;2023-03-22T07:28:20;98438.84;;;2.31;100.00
65280;BME280;51878;55.748;48.742;2023-03-22T07:33:22;98396.50;;;1.83;100.00
65280;BME280;51878;55.748;48.742;2023-03-22T07:38:24;98391.88;;;1.68;100.00
65280;BME280;51878;55.748;48.742;2023-03-22T07:43:26;98380.38;;;1.49;100.00
65280;BME280;51878;55.748;48.742;2023-03-22T07:48:31;98376.72;;;1.50;100.00
65280;BME280;51878;55.748;48.742;2023-03-22T07:53:35;98347.44;;;1.40;100.00
65280;BME280;51878;55.748;48.742;2023-03-22T07:58:37;98364.97;;;1.43;100.00
65280;BME280;51878;55.748;48.742;2023-03-22T08:03:40;98444.69;;;2.00;100.00
65280;BME280;51878;55.748;48.742;2023-03-22T08:08:42;98465.13;;;2.09;100.00
65280;BME280;51878;55.748;48.742;2023-03-22T08:13:44;98394.09;;;1.72;100.00
65280;BME280;51878;55.748;48.742;2023-03-22T08:18:50;98379.19;;;1.70;100.00
65280;BME280;51878;55.748;48.742;2023-03-22T08:23:52;98476.41;;;2.21;100.00
65280;BME280;51878;55.748;48.742;2023-03-22T08:28:55;98469.56;;;2.18;100.00
65280;BME280;51878;55.748;48.742;2023-03-22T08:33:57;98377.16;;;1.63;100.00
65280;BME280;51878;55.748;48.742;2023-03-22T08:38:59;98472.72;;;2.22;100.00
65280;BME280;51878;55.748;48.742;2023-03-22T08:44:02;98461.56;;;2.26;100.00
65280;BME280;51878;55.748;48.742;2023-03-22T08:49:04;98372.66;;;1.64;100.00
65280;BME280;51878;55.748;48.742;2023-03-22T08:54:06;98453.25;;;2.30;100.00
65280;BME280;51878;55.748;48.742;2023-03-22T08:59:08;98480.53;;;2.41;100.00
65280;BME280;51878;55.748;48.742;2023-03-22T09:04:11;98495.91;;;2.39;100.00
65280;BME280;51878;55.748;48.742;2023-03-22T09:09:13;98511.63;;;2.42;100.00
65280;BME280;51878;55.748;48.742;2023-03-22T09:14:15;98497.22;;;2.35;100.00
65280;BME280;51878;55.748;48.742;2023-03-22T09:19:17;98500.03;;;2.34;100.00
65280;BME280;51878;55.748;48.742;2023-03-22T09:24:19;98430.56;;;2.08;100.00
65280;BME280;51878;55.748;48.742;2023-03-22T09:29:22;98517.09;;;2.59;100.00
65280;BME280;51878;55.748;48.742;2023-03-22T09:34:24;98507.75;;;2.71;100.00
65280;BME280;51878;55.748;48.742;2023-03-22T09:39:26;98537.59;;;2.84;100.00
65280;BME280;51878;55.748;48.742;2023-03-22T09:44:40;98509.25;;;2.65;100.00
65280;BME280;51878;55.748;48.742;2023-03-22T09:49:47;98505.69;;;2.57;100.00
65280;BME280;51878;55.748;48.742;2023-03-22T09:54:54;98514.00;;;2.80;100.00
65280;BME280;51878;55.748;48.742;2023-03-22T10:00:03;98547.56;;;3.00;100.00
65280;BME280;51878;55.748;48.742;2023-03-22T10:05:37;98551.91;;;3.01;100.00
65280;BME280;51878;55.748;48.742;2023-03-22T10:10:42;98556.09;;;2.96;100.00
65280;BME280;51878;55.748;48.742;2023-03-22T10:16:01;98567.00;;;3.10;100.00
65280;BME280;51878;55.748;48.742;2023-03-22T10:21:11;98529.84;;;3.07;100.00
65280;BME280;51878;55.748;48.742;2023-03-22T10:26:27;98486.50;;;3.12;100.00
65280;BME280;51878;55.748;48.742;2023-03-22T10:31:38;98560.72;;;4.28;100.00
65280;BME280;51878;55.748;48.742;2023-03-22T10:36:44;98483.75;;;4.76;100.00
65280;BME280;51878;55.748;48.742;2023-03-22T10:41:53;98525.94;;;5.07;100.00
65280;BME280;51878;55.748;48.742;2023-03-22T10:47:00;98513.47;;;4.74;100.00
65280;BME280;51878;55.748;48.742;2023-03-22T10:57:38;98510.22;;;3.99;100.00
65280;BME280;51878;55.748;48.742;2023-03-22T11:02:59;98570.94;;;4.08;100.00
65280;BME280;51878;55.748;48.742;2023-03-22T11:08:02;98440.28;;;3.02;100.00
65280;BME280;51878;55.748;48.742;2023-03-22T11:18:16;98567.91;;;4.03;100.00
65280;BME280;51878;55.748;48.742;2023-03-22T11:23:20;98565.38;;;4.50;100.00
65280;BME280;51878;55.748;48.742;2023-03-22T11:28:27;98543.56;;;4.45;100.00
65280;BME280;51878;55.748;48.742;2023-03-22T11:33:30;98568.16;;;4.73;100.00
65280;BME280;51878;55.748;48.742;2023-03-22T11:38:40;98575.69;;;4.86;100.00
65280;BME280;51878;55.748;48.742;2023-03-22T11:43:47;98599.19;;;4.84;100.00
65280;BME280;51878;55.748;48.742;2023-03-22T11:48:56;98529.06;;;4.87;100.00
65280;BME280;51878;55.748;48.742;2023-03-22T11:54:07;98554.88;;;5.67;94.19
65280;BME280;51878;55.748;48.742;2023-03-22T11:59:23;98579.75;;;5.92;89.62
65280;BME280;51878;55.748;48.742;2023-03-22T12:04:28;98567.69;;;6.34;83.47
65280;BME280;51878;55.748;48.742;2023-03-22T12:10:24;98604.81;;;6.62;84.83
65280;BME280;51878;55.748;48.742;2023-03-22T12:15:09;98564.88;;;6.80;77.91
65280;BME280;51878;55.748;48.742;2023-03-22T12:25:35;98585.69;;;8.19;66.87
65280;BME280;51878;55.748;48.742;2023-03-22T12:30:51;98623.97;;;8.94;61.45
65280;BME280;51878;55.748;48.742;2023-03-22T12:35:57;98555.50;;;8.58;61.19
65280;BME280;51878;55.748;48.742;2023-03-22T12:41:04;98515.19;;;8.92;59.43
65280;BME280;51878;55.748;48.742;2023-03-22T12:46:17;98564.41;;;9.63;55.70
65280;BME280;51878;55.748;48.742;2023-03-22T12:51:20;98637.59;;;10.58;54.66
65280;BME280;51878;55.748;48.742;2023-03-22T12:56:25;98646.59;;;11.12;52.24
65280;BME280;51878;55.748;48.742;2023-03-22T13:01:43;98586.09;;;10.58;52.13
65280;BME280;51878;55.748;48.742;2023-03-22T13:38:25;98683.13;;;10.14;53.65
65280;BME280;51878;55.748;48.742;2023-03-22T13:43:32;98685.13;;;9.92;54.36
65280;BME280;51878;55.748;48.742;2023-03-22T13:54:09;98694.47;;;10.45;52.09
65280;BME280;51878;55.748;48.742;2023-03-22T14:04:50;98702.00;;;9.95;51.79
65280;BME280;51878;55.748;48.742;2023-03-22T14:10:01;98715.34;;;8.62;55.53
65280;BME280;51878;55.748;48.742;2023-03-22T14:15:07;98731.88;;;8.16;58.10
65280;BME280;51878;55.748;48.742;2023-03-22T14:20:20;98684.53;;;7.54;59.34
65280;BME280;51878;55.748;48.742;2023-03-22T14:25:33;98729.47;;;7.61;59.80
65280;BME280;51878;55.748;48.742;2023-03-22T14:30:37;98694.25;;;6.95;61.23
65280;BME280;51878;55.748;48.742;2023-03-22T14:35:42;98746.63;;;6.70;64.12
65280;BME280;51878;55.748;48.742;2023-03-22T14:40:46;98662.31;;;5.92;64.38
65280;BME280;51878;55.748;48.742;2023-03-22T14:46:02;98742.81;;;5.46;69.77
65280;BME280;51878;55.748;48.742;2023-03-22T14:51:13;98716.19;;;4.62;74.91
65280;BME280;51878;55.748;48.742;2023-03-22T14:56:19;98753.69;;;4.21;79.70
65280;BME280;51878;55.748;48.742;2023-03-22T15:01:27;98774.16;;;3.80;84.57
65280;BME280;51878;55.748;48.742;2023-03-22T15:06:29;98756.03;;;3.21;89.13
65280;BME280;51878;55.748;48.742;2023-03-22T15:11:31;98729.44;;;2.76;91.96
65280;BME280;51878;55.748;48.742;2023-03-22T15:16:35;98781.41;;;2.73;94.49
65280;BME280;51878;55.748;48.742;2023-03-22T15:21:40;98735.31;;;2.25;95.33
65280;BME280;51878;55.748;48.742;2023-03-22T15:26:42;98746.31;;;2.22;95.94
65280;BME280;51878;55.748;48.742;2023-03-22T15:31:45;98692.88;;;1.77;96.14
65280;BME280;51878;55.748;48.742;2023-03-22T15:36:47;98799.09;;;2.20;96.37
65280;BME280;51878;55.748;48.742;2023-03-22T15:41:52;98825.09;;;2.28;96.41
65280;BME280;51878;55.748;48.742;2023-03-22T15:57:21;98782.13;;;1.47;99.78
65280;BME280;51878;55.748;48.742;2023-03-22T16:02:30;98816.03;;;1.36;100.00
65280;BME280;51878;55.748;48.742;2023-03-22T16:07:32;98854.25;;;1.47;100.00
65280;BME280;51878;55.748;48.742;2023-03-22T16:12:33;98840.22;;;1.25;100.00
65280;BME280;51878;55.748;48.742;2023-03-22T16:17:34;98884.47;;;1.47;100.00
65280;BME280;51878;55.748;48.742;2023-03-22T16:22:35;98861.56;;;1.25;100.00
65280;BME280;51878;55.748;48.742;2023-03-22T16:27:36;98887.28;;;1.36;100.00
65280;BME280;51878;55.748;48.742;2023-03-22T16:32:36;98925.09;;;1.51;100.00
65280;BME280;51878;55.748;48.742;2023-03-22T16:37:37;98892.78;;;1.24;100.00
65280;BME280;51878;55.748;48.742;2023-03-22T16:42:39;98726.09;;;0.22;100.00
65280;BME280;51878;55.748;48.742;2023-03-22T16:47:40;98904.28;;;1.25;99.91
65280;BME280;51878;55.748;48.742;2023-03-22T16:52:41;98935.94;;;1.39;98.64
65280;BME280;51878;55.748;48.742;2023-03-22T16:57:43;98942.41;;;1.37;99.33
65280;BME280;51878;55.748;48.742;2023-03-22T17:02:46;98937.91;;;1.37;99.60
65280;BME280;51878;55.748;48.742;2023-03-22T17:07:48;98941.28;;;1.39;99.05
65280;BME280;51878;55.748;48.742;2023-03-22T17:12:59;98920.59;;;1.22;99.11
65280;BME280;51878;55.748;48.742;2023-03-22T17:18:02;98960.66;;;1.32;98.45
65280;BME280;51878;55.748;48.742;2023-03-22T17:23:08;98910.19;;;1.09;97.19
65280;BME280;51878;55.748;48.742;2023-03-22T17:28:38;98782.75;;;0.14;96.39
65280;BME280;51878;55.748;48.742;2023-03-22T17:34:53;98741.13;;;-0.28;96.67
65280;BME280;51878;55.748;48.742;2023-03-22T17:40:58;98978.78;;;1.28;96.03
65280;BME280;51878;55.748;48.742;2023-03-22T17:46:03;98962.47;;;1.12;95.76
65280;BME280;51878;55.748;48.742;2023-03-22T17:51:11;98909.03;;;0.73;95.26
65280;BME280;51878;55.748;48.742;2023-03-22T17:56:15;98964.69;;;0.97;96.48
65280;BME280;51878;55.748;48.742;2023-03-22T18:01:16;98910.19;;;0.39;96.93
65280;BME280;51878;55.748;48.742;2023-03-22T18:06:18;98929.38;;;0.64;95.96
65280;BME280;51878;55.748;48.742;2023-03-22T18:11:19;98971.28;;;0.93;95.68
65280;BME280;51878;55.748;48.742;2023-03-22T18:16:20;98981.50;;;0.88;95.18
65280;BME280;51878;55.748;48.742;2023-03-22T18:21:21;98980.25;;;0.82;95.03
65280;BME280;51878;55.748;48.742;2023-03-22T18:26:22;98985.72;;;0.90;94.64
65280;BME280;51878;55.748;48.742;2023-03-22T18:31:25;98957.84;;;0.64;95.18
65280;BME280;51878;55.748;48.742;2023-03-22T18:36:27;98985.31;;;0.85;95.56
65280;BME280;51878;55.748;48.742;2023-03-22T18:41:28;98981.22;;;0.81;95.51
65280;BME280;51878;55.748;48.742;2023-03-22T18:46:29;98974.69;;;0.54;95.94
65280;BME280;51878;55.748;48.742;2023-03-22T18:51:30;98879.31;;;-0.04;96.46
65280;BME280;51878;55.748;48.742;2023-03-22T18:56:32;98923.84;;;0.15;96.27
65280;BME280;51878;55.748;48.742;2023-03-22T19:01:34;98991.78;;;0.52;96.41
65280;BME280;51878;55.748;48.742;2023-03-22T19:06:35;98938.19;;;0.24;95.93
65280;BME280;51878;55.748;48.742;2023-03-22T19:11:36;98979.69;;;0.48;95.19
65280;BME280;51878;55.748;48.742;2023-03-22T19:16:37;98995.06;;;0.65;95.12
65280;BME280;51878;55.748;48.742;2023-03-22T19:21:38;98907.97;;;0.04;95.26
65280;BME280;51878;55.748;48.742;2023-03-22T19:26:39;98996.09;;;0.43;95.90
65280;BME280;51878;55.748;48.742;2023-03-22T19:31:40;98922.19;;;0.14;95.23
65280;BME280;51878;55.748;48.742;2023-03-22T19:36:41;98984.31;;;0.46;93.65
65280;BME280;51878;55.748;48.742;2023-03-22T19:41:43;98972.94;;;0.44;91.54
65280;BME280;51878;55.748;48.742;2023-03-22T19:46:47;98957.16;;;0.31;92.80
65280;BME280;51878;55.748;48.742;2023-03-22T19:51:51;98822.25;;;-0.63;92.64
65280;BME280;51878;55.748;48.742;2023-03-22T19:56:52;98935.50;;;0.14;93.35
65280;BME280;51878;55.748;48.742;2023-03-22T20:01:53;99024.13;;;0.68;94.56
65280;BME280;51878;55.748;48.742;2023-03-22T20:06:54;99006.88;;;0.63;96.22
65280;BME280;51878;55.748;48.742;2023-03-22T20:11:55;98902.88;;;-0.09;97.63
65280;BME280;51878;55.748;48.742;2023-03-22T20:16:56;98976.28;;;0.36;100.00
65280;BME280;51878;55.748;48.742;2023-03-22T20:21:57;98971.69;;;0.38;100.00
65280;BME280;51878;55.748;48.742;2023-03-22T20:26:58;99041.31;;;0.75;100.00
65280;BME280;51878;55.748;48.742;2023-03-22T20:31:59;98995.06;;;0.55;100.00
65280;BME280;51878;55.748;48.742;2023-03-22T20:37:00;99009.78;;;0.59;100.00
65280;BME280;51878;55.748;48.742;2023-03-22T20:42:02;99004.00;;;0.54;100.00
65280;BME280;51878;55.748;48.742;2023-03-22T20:47:02;99041.03;;;0.78;100.00
65280;BME280;51878;55.748;48.742;2023-03-22T20:52:03;99030.47;;;0.67;100.00
65280;BME280;51878;55.748;48.742;2023-03-22T20:57:04;99022.16;;;0.60;100.00
65280;BME280;51878;55.748;48.742;2023-03-22T21:02:05;99024.41;;;0.65;100.00
65280;BME280;51878;55.748;48.742;2023-03-22T21:07:06;98971.19;;;0.23;100.00
65280;BME280;51878;55.748;48.742;2023-03-22T21:12:07;99046.03;;;0.62;100.00
65280;BME280;51878;55.748;48.742;2023-03-22T21:17:08;98920.50;;;-0.17;100.00
65280;BME280;51878;55.748;48.742;2023-03-22T21:22:09;98971.69;;;0.17;100.00
65280;BME280;51878;55.748;48.742;2023-03-22T21:27:12;99012.22;;;0.41;100.00
65280;BME280;51878;55.748;48.742;2023-03-22T21:32:12;98976.19;;;0.16;100.00
65280;BME280;51878;55.748;48.742;2023-03-22T21:37:17;99041.63;;;0.51;100.00
65280;BME280;51878;55.748;48.742;2023-03-22T21:42:27;98855.19;;;-0.64;100.00
65280;BME280;51878;55.748;48.742;2023-03-22T21:47:28;99047.91;;;0.50;100.00
65280;BME280;51878;55.748;48.742;2023-03-22T21:52:29;99051.78;;;0.36;100.00
65280;BME280;51878;55.748;48.742;2023-03-22T21:57:30;99015.97;;;0.08;100.00
65280;BME280;51878;55.748;48.742;2023-03-22T22:02:31;98957.19;;;-0.21;100.00
65280;BME280;51878;55.748;48.742;2023-03-22T22:07:32;98970.44;;;-0.10;100.00
65280;BME280;51878;55.748;48.742;2023-03-22T22:12:33;98927.75;;;-0.40;100.00
65280;BME280;51878;55.748;48.742;2023-03-22T22:17:34;99007.53;;;0.03;100.00
65280;BME280;51878;55.748;48.742;2023-03-22T22:22:35;99082.19;;;0.55;100.00
65280;BME280;51878;55.748;48.742;2023-03-22T22:27:36;98892.19;;;-0.60;100.00
65280;BME280;51878;55.748;48.742;2023-03-22T22:32:39;99030.78;;;0.22;100.00
65280;BME280;51878;55.748;48.742;2023-03-22T22:37:40;99081.31;;;0.45;100.00
65280;BME280;51878;55.748;48.742;2023-03-22T22:42:41;99049.91;;;0.27;100.00
65280;BME280;51878;55.748;48.742;2023-03-22T22:47:42;99040.75;;;0.20;100.00
65280;BME280;51878;55.748;48.742;2023-03-22T22:52:45;99037.63;;;0.15;100.00
65280;BME280;51878;55.748;48.742;2023-03-22T22:57:46;99090.47;;;0.52;100.00
65280;BME280;51878;55.748;48.742;2023-03-22T23:02:47;99016.81;;;0.09;100.00
65280;BME280;51878;55.748;48.742;2023-03-22T23:07:48;99072.00;;;0.39;100.00
65280;BME280;51878;55.748;48.742;2023-03-22T23:12:49;99076.50;;;0.38;100.00
65280;BME280;51878;55.748;48.742;2023-03-22T23:17:51;98978.81;;;-0.14;100.00
65280;BME280;51878;55.748;48.742;2023-03-22T23:22:53;99071.34;;;0.26;100.00
65280;BME280;51878;55.748;48.742;2023-03-22T23:27:55;99065.25;;;0.14;100.00
65280;BME280;51878;55.748;48.742;2023-03-22T23:32:57;99093.28;;;0.29;100.00
65280;BME280;51878;55.748;48.742;2023-03-22T23:38:01;99078.00;;;0.10;100.00
65280;BME280;51878;55.748;48.742;2023-03-22T23:43:04;99005.91;;;-0.30;100.00
65280;BME280;51878;55.748;48.742;2023-03-22T23:48:05;99032.28;;;-0.27;100.00
65280;BME280;51878;55.748;48.742;2023-03-22T23:53:06;99068.94;;;0.02;100.00
65280;BME280;51878;55.748;48.742;2023-03-22T23:58:07;99082.03;;;0.05;100.00
